createdAt,value
2023-03-27T00:04:18.653Z,1.50
2023-03-27T00:09:19.556Z,1.37
2023-03-27T00:14:23.549Z,1.25
2023-03-27T00:19:25.810Z,1.16
2023-03-27T00:24:29.982Z,1.16
2023-03-27T00:29:34.155Z,1.10
2023-03-27T00:34:38.301Z,0.97
2023-03-27T00:39:42.489Z,0.85
2023-03-27T00:44:46.597Z,0.73
2023-03-27T00:49:50.803Z,0.77
2023-03-27T00:54:54.986Z,0.75
2023-03-27T00:59:59.158Z,0.70
2023-03-27T01:05:03.283Z,0.77
2023-03-27T01:10:07.486Z,0.66
2023-03-27T01:15:11.596Z,0.62
2023-03-27T01:20:15.778Z,0.57
2023-03-27T01:25:19.954Z,0.49
2023-03-27T01:30:24.243Z,0.36
2023-03-27T01:35:28.303Z,0.21
2023-03-27T01:40:32.443Z,0.14
2023-03-27T01:45:36.632Z,0.07
2023-03-27T01:50:40.770Z,0.01
2023-03-27T01:55:44.948Z,0.07
2023-03-27T02:05:53.297Z,0.16
2023-03-27T02:10:55.747Z,0.07
2023-03-27T02:15:59.791Z,0.03
2023-03-27T02:21:01.986Z,0.03
2023-03-27T02:26:06.203Z,0.06
2023-03-27T02:31:33.669Z,0.10
2023-03-27T02:36:14.505Z,0.04
2023-03-27T02:41:18.686Z,0.06
2023-03-27T02:46:22.927Z,0.08
2023-03-27T02:56:31.321Z,-0.03
2023-03-27T03:01:35.368Z,-0.06
2023-03-27T03:06:39.495Z,-0.07
2023-03-27T03:11:43.660Z,-0.05
2023-03-27T03:16:47.870Z,-0.13
2023-03-27T03:21:52.008Z,-0.20
2023-03-27T03:26:56.150Z,-0.23
2023-03-27T03:32:00.312Z,-0.26
2023-03-27T03:37:04.505Z,-0.30
2023-03-27T03:42:08.682Z,-0.27
2023-03-27T03:52:16.958Z,-0.47
2023-03-27T03:57:19.326Z,-0.59
2023-03-27T04:02:30.557Z,-0.71
2023-03-27T04:07:41.614Z,-0.83
2023-03-27T04:12:52.764Z,-0.85
2023-03-27T04:18:04.025Z,-0.84
2023-03-27T04:23:15.143Z,-0.93
2023-03-27T04:28:24.408Z,-0.92
2023-03-27T04:33:30.612Z,-0.78
2023-03-27T04:38:32.744Z,-0.69
2023-03-27T04:43:37.036Z,-0.69
2023-03-27T04:48:41.067Z,-0.64
2023-03-27T04:53:45.241Z,-0.69
2023-03-27T04:58:49.404Z,-0.56
2023-03-27T05:03:53.566Z,-0.53
2023-03-27T05:08:57.742Z,-0.47
2023-03-27T05:14:01.868Z,-0.49
2023-03-27T05:19:06.024Z,-0.39
2023-03-27T05:24:10.244Z,-0.30
2023-03-27T05:29:14.429Z,-0.26
2023-03-27T05:34:18.591Z,-0.19
2023-03-27T05:39:22.727Z,-0.03
2023-03-27T05:44:26.892Z,0.13
2023-03-27T05:49:32.412Z,0.30
2023-03-27T05:54:35.223Z,0.50
2023-03-27T05:59:39.407Z,0.64
2023-03-27T06:04:43.609Z,0.67
2023-03-27T06:09:47.724Z,0.78
2023-03-27T06:14:49.994Z,0.90
2023-03-27T06:19:54.158Z,1.00
2023-03-27T06:24:58.353Z,1.07
2023-03-27T06:30:00.604Z,1.08
2023-03-27T06:35:04.756Z,1.14
2023-03-27T06:40:08.946Z,1.31
2023-03-27T06:45:13.106Z,1.41
2023-03-27T06:50:17.266Z,1.58
2023-03-27T06:55:21.423Z,1.76
2023-03-27T07:00:25.599Z,1.90
2023-03-27T07:05:29.762Z,2.05
2023-03-27T07:10:33.938Z,2.15
2023-03-27T07:15:38.085Z,2.33
2023-03-27T07:20:42.279Z,2.50
2023-03-27T07:25:46.449Z,2.71
2023-03-27T07:30:50.598Z,2.88
2023-03-27T07:35:54.932Z,3.08
2023-03-27T07:40:58.926Z,3.23
2023-03-27T07:46:03.170Z,3.33
2023-03-27T07:51:13.760Z,3.51
2023-03-27T07:56:11.405Z,3.67
2023-03-27T08:01:15.579Z,3.98
2023-03-27T08:06:19.717Z,4.19
2023-03-27T08:11:30.593Z,4.28
2023-03-27T08:16:26.214Z,4.23
2023-03-27T08:21:30.356Z,4.31
2023-03-27T08:26:32.614Z,4.42
2023-03-27T08:31:36.780Z,4.59
2023-03-27T08:36:40.933Z,4.64
2023-03-27T08:41:45.140Z,4.56
2023-03-27T08:51:53.429Z,4.57
2023-03-27T08:56:57.598Z,4.52
2023-03-27T09:02:01.799Z,4.34
2023-03-27T09:07:05.911Z,4.43
2023-03-27T09:12:10.068Z,4.91
2023-03-27T09:17:14.261Z,5.16
2023-03-27T09:22:18.388Z,5.53
2023-03-27T09:27:22.585Z,5.63
2023-03-27T09:32:26.760Z,5.17
2023-03-27T09:37:30.848Z,5.58
2023-03-27T09:42:35.106Z,5.62
2023-03-27T09:47:39.263Z,6.10
2023-03-27T09:52:43.387Z,6.22
2023-03-27T09:57:47.523Z,5.80
2023-03-27T10:02:51.748Z,5.60
2023-03-27T10:07:55.866Z,5.87
2023-03-27T10:13:00.031Z,6.35
2023-03-27T10:18:02.324Z,6.69
2023-03-27T10:23:06.553Z,6.28
2023-03-27T10:28:08.802Z,5.94
2023-03-27T10:33:12.998Z,6.15
2023-03-27T10:38:17.201Z,5.92
2023-03-27T10:43:21.248Z,5.83
2023-03-27T10:48:25.413Z,6.21
2023-03-27T10:53:29.677Z,6.10
2023-03-27T11:03:37.846Z,6.46
2023-03-27T11:08:41.974Z,7.05
2023-03-27T11:13:46.115Z,7.28
2023-03-27T11:18:50.338Z,7.25
2023-03-27T11:23:54.511Z,7.37
2023-03-27T11:28:58.620Z,7.41
2023-03-27T11:34:02.766Z,7.14
2023-03-27T11:39:06.954Z,6.99
2023-03-27T11:44:11.104Z,7.23
2023-03-27T11:49:15.259Z,7.19
2023-03-27T11:54:19.532Z,6.51
2023-03-27T11:59:23.586Z,6.21
2023-03-27T12:04:27.741Z,5.52
2023-03-27T12:09:31.950Z,5.59
2023-03-27T12:19:40.248Z,5.36
2023-03-27T12:24:57.172Z,5.34
2023-03-27T12:29:46.648Z,5.19
2023-03-27T12:34:48.969Z,5.73
2023-03-27T12:39:53.144Z,6.31
2023-03-27T12:44:59.467Z,7.20
2023-03-27T12:50:01.410Z,7.47
2023-03-27T12:55:05.587Z,7.35
2023-03-27T13:00:09.789Z,7.10
2023-03-27T13:05:26.261Z,6.89
2023-03-27T13:10:18.101Z,6.51
2023-03-27T13:15:22.256Z,6.18
2023-03-27T13:20:26.412Z,5.85
2023-03-27T13:25:30.604Z,5.65
2023-03-27T13:30:34.742Z,5.55
2023-03-27T13:35:38.924Z,5.68
2023-03-27T13:40:43.294Z,5.13
2023-03-27T13:45:47.242Z,5.04
2023-03-27T13:50:51.422Z,4.82
2023-03-27T13:55:55.712Z,4.78
2023-03-27T14:00:59.724Z,4.79
2023-03-27T14:06:05.910Z,5.54
2023-03-27T14:11:09.084Z,5.81
2023-03-27T14:16:12.304Z,5.86
2023-03-27T14:21:16.414Z,5.62
2023-03-27T14:26:18.734Z,5.55
2023-03-27T14:31:20.956Z,6.03
2023-03-27T14:36:25.107Z,6.32
2023-03-27T14:41:29.215Z,6.58
2023-03-27T14:46:33.476Z,6.84
2023-03-27T14:51:37.565Z,7.24
2023-03-27T14:56:41.773Z,7.76
2023-03-27T15:01:45.920Z,7.42
2023-03-27T15:06:50.176Z,7.01
2023-03-27T15:11:54.341Z,6.61
2023-03-27T15:16:58.449Z,6.33
2023-03-27T15:22:02.535Z,6.07
2023-03-27T15:27:06.758Z,5.68
2023-03-27T15:32:10.930Z,5.42
2023-03-27T15:37:15.084Z,5.22
2023-03-27T15:42:19.318Z,4.85
2023-03-27T15:47:23.568Z,4.57
2023-03-27T15:52:27.525Z,4.47
2023-03-27T15:57:31.756Z,4.46
2023-03-27T16:02:35.898Z,4.24
2023-03-27T16:07:40.037Z,4.12
2023-03-27T16:12:44.181Z,4.15
2023-03-27T16:17:46.466Z,5.58
2023-03-27T16:22:50.587Z,4.94
2023-03-27T16:27:54.798Z,5.22
2023-03-27T16:32:57.146Z,6.60
2023-03-27T16:38:01.231Z,5.60
2023-03-27T16:43:05.343Z,5.76
2023-03-27T16:48:09.570Z,5.75
2023-03-27T16:53:13.767Z,5.88
2023-03-27T16:58:17.826Z,5.51
2023-03-27T17:03:22.010Z,5.13
2023-03-27T17:08:26.189Z,4.92
2023-03-27T17:13:30.332Z,4.72
2023-03-27T17:18:34.504Z,4.58
2023-03-27T17:23:38.693Z,4.59
2023-03-27T17:28:42.823Z,4.47
2023-03-27T17:33:47.086Z,4.37
2023-03-27T17:38:51.173Z,4.27
2023-03-27T17:43:55.300Z,4.20
2023-03-27T17:48:59.488Z,4.08
2023-03-27T17:54:03.636Z,3.98
2023-03-27T17:59:07.828Z,3.92
2023-03-27T18:04:12.039Z,3.88
2023-03-27T18:09:16.148Z,3.83
2023-03-27T18:14:20.331Z,3.84
2023-03-27T18:19:22.607Z,3.83
2023-03-27T18:24:26.763Z,3.78
2023-03-27T18:29:29.024Z,3.69
2023-03-27T18:34:33.206Z,3.65
2023-03-27T18:39:37.434Z,3.59
2023-03-27T18:44:41.520Z,3.46
2023-03-27T18:49:45.689Z,3.31
2023-03-27T18:54:49.852Z,3.16
2023-03-27T18:59:53.973Z,3.07
2023-03-27T19:04:58.178Z,2.99
2023-03-27T19:10:02.317Z,2.94
2023-03-27T19:15:17.261Z,2.86
2023-03-27T19:25:14.808Z,2.88
2023-03-27T19:30:18.998Z,2.96
2023-03-27T19:35:23.410Z,2.89
2023-03-27T19:40:27.353Z,2.79
2023-03-27T19:45:31.464Z,2.73
2023-03-27T19:50:35.663Z,2.69
2023-03-27T19:55:39.822Z,2.63
2023-03-27T20:00:44.011Z,2.55
2023-03-27T20:05:48.138Z,2.48
2023-03-27T20:10:52.318Z,2.40
2023-03-27T20:15:56.900Z,2.37
2023-03-27T20:20:58.873Z,2.35
2023-03-27T20:26:02.930Z,2.34
2023-03-27T20:31:07.097Z,2.28
2023-03-27T20:36:11.302Z,2.27
2023-03-27T20:41:13.496Z,2.19
2023-03-27T20:46:17.706Z,2.19
2023-03-27T20:51:21.863Z,2.11
2023-03-27T20:56:26.069Z,2.01
2023-03-27T21:01:30.220Z,1.98
2023-03-27T21:06:34.356Z,1.93
2023-03-27T21:11:38.489Z,1.81
2023-03-27T21:16:42.746Z,1.73
2023-03-27T21:21:46.868Z,1.68
2023-03-27T21:26:51.094Z,1.60
2023-03-27T21:31:55.252Z,1.57
2023-03-27T21:36:59.393Z,1.47
2023-03-27T21:42:03.502Z,1.37
2023-03-27T21:47:07.671Z,1.30
2023-03-27T21:52:11.840Z,1.23
2023-03-27T21:57:16.016Z,1.12
2023-03-27T22:02:20.264Z,1.06
2023-03-27T22:07:24.284Z,0.99
2023-03-27T22:12:28.491Z,0.96
2023-03-27T22:17:32.654Z,0.95
2023-03-27T22:22:36.803Z,0.90
2023-03-27T22:27:39.071Z,0.87
2023-03-27T22:32:43.329Z,0.79
2023-03-27T22:37:45.559Z,0.71
2023-03-27T22:42:49.667Z,0.60
2023-03-27T22:47:53.898Z,0.52
2023-03-27T22:52:58.029Z,0.41
2023-03-27T22:58:02.161Z,0.34
2023-03-27T23:03:06.418Z,0.28
2023-03-27T23:08:10.533Z,0.29
2023-03-27T23:13:14.682Z,0.28
2023-03-27T23:18:18.866Z,0.25
2023-03-27T23:23:22.996Z,0.25
2023-03-27T23:28:27.200Z,0.22
2023-03-27T23:33:31.346Z,0.11
2023-03-27T23:38:35.508Z,-0.04
2023-03-27T23:43:39.675Z,-0.04
2023-03-27T23:48:43.882Z,-0.09
2023-03-27T23:53:48.033Z,-0.15
2023-03-27T23:58:52.147Z,-0.12
